Time;durP1;ratioP1;P1;durP2;ratioP2;P2;SDS_P1;SDS_P2;PMS_P1;PMS_P2;Temp;Humidity;BMP_temperature;BMP_pressure;BME280_temperature;BME280_humidity;BME280_pressure;Samples;Min_cycle;Max_cycle;Signal;HPM_P1;HPM_P2
2022/11/07 00:02:06;;;;;;;9.63;2.63;;;13.90;99.90;;;;;;5067276;28;25117;-72
2022/11/07 00:04:32;;;;;;;9.45;2.38;;;13.90;99.90;;;;;;5059309;28;25122;-73
2022/11/07 00:06:58;;;;;;;10.82;2.17;;;13.90;99.90;;;;;;5059687;28;25077;-75
2022/11/07 00:09:24;;;;;;;4.75;1.98;;;13.90;99.90;;;;;;5065501;28;25135;-72
2022/11/07 00:11:50;;;;;;;9.18;2.03;;;14.00;99.90;;;;;;5059087;28;25167;-73
2022/11/07 00:14:16;;;;;;;7.38;2.03;;;14.00;99.90;;;;;;5065823;28;25088;-72
2022/11/07 00:16:44;;;;;;;6.03;2.13;;;14.00;99.90;;;;;;5073047;28;25111;-71
2022/11/07 00:19:11;;;;;;;13.00;2.72;;;14.00;99.90;;;;;;5067771;28;25088;-73
2022/11/07 00:21:38;;;;;;;7.95;2.25;;;14.00;99.90;;;;;;5068036;28;25074;-73
2022/11/07 00:24:04;;;;;;;8.57;2.25;;;13.90;99.90;;;;;;5069259;28;25050;-74
2022/11/07 00:26:30;;;;;;;6.80;2.22;;;13.90;99.90;;;;;;5063618;28;25074;-74
2022/11/07 00:28:55;;;;;;;6.60;2.55;;;13.90;99.90;;;;;;5089481;28;25060;-74
2022/11/07 00:31:21;;;;;;;3.65;1.50;;;13.80;99.90;;;;;;5078817;28;25074;-73
2022/11/07 00:33:47;;;;;;;7.72;2.20;;;13.80;99.90;;;;;;5075886;28;25077;-73
2022/11/07 00:36:26;;;;;;;9.23;1.92;;;13.80;99.90;;;;;;5067246;28;25132;-74
2022/11/07 00:38:52;;;;;;;9.73;1.88;;;13.70;99.90;;;;;;5067730;28;25068;-77
2022/11/07 00:41:18;;;;;;;5.38;1.55;;;13.70;99.90;;;;;;5057103;28;25073;-72
2022/11/07 00:43:44;;;;;;;9.82;2.17;;;13.80;99.90;;;;;;5065888;28;25071;-73
2022/11/07 00:46:11;;;;;;;5.53;1.60;;;13.70;99.90;;;;;;5065477;28;25061;-73
2022/11/07 00:48:37;;;;;;;11.90;1.75;;;13.70;99.90;;;;;;5078840;28;25061;-75
2022/11/07 00:51:15;;;;;;;11.80;1.88;;;13.70;99.90;;;;;;5062994;28;25062;-74
2022/11/07 00:53:41;;;;;;;8.52;2.20;;;13.70;99.90;;;;;;5064556;28;25260;-74
2022/11/07 00:56:12;;;;;;;9.15;2.03;;;13.70;99.90;;;;;;5070774;28;25096;-73
2022/11/07 00:58:38;;;;;;;7.75;2.08;;;13.60;99.90;;;;;;5052418;28;25077;-74
2022/11/07 01:01:13;;;;;;;3.72;1.73;;;13.60;99.90;;;;;;5069035;28;25080;-76
2022/11/07 01:06:23;;;;;;;5.90;2.00;;;13.60;99.90;;;;;;5068839;28;25073;-73
2022/11/07 01:08:48;;;;;;;13.60;1.92;;;13.60;99.90;;;;;;5069785;28;25124;-74
2022/11/07 01:11:14;;;;;;;6.00;1.75;;;13.60;99.90;;;;;;5065017;28;25067;-73
2022/11/07 01:13:40;;;;;;;4.95;1.40;;;13.60;99.90;;;;;;5056176;28;25136;-73
2022/11/07 01:16:09;;;;;;;8.45;2.20;;;13.50;99.90;;;;;;5065676;28;25120;-73
2022/11/07 01:18:35;;;;;;;9.80;1.98;;;13.60;99.90;;;;;;5068185;28;25093;-75
2022/11/07 01:21:05;;;;;;;6.65;1.95;;;13.50;99.90;;;;;;5065323;28;25143;-74
2022/11/07 01:23:31;;;;;;;8.85;2.10;;;13.50;99.90;;;;;;5057918;28;25099;-74
2022/11/07 01:25:57;;;;;;;6.95;1.85;;;13.50;99.90;;;;;;5069772;28;25146;-73
2022/11/07 01:28:23;;;;;;;4.47;1.70;;;13.50;99.90;;;;;;5072696;28;25111;-73
2022/11/07 01:30:48;;;;;;;3.08;1.60;;;13.60;99.90;;;;;;5074332;28;25102;-76
2022/11/07 01:33:14;;;;;;;12.60;2.38;;;13.70;99.90;;;;;;5076030;28;25070;-75
2022/11/07 01:35:40;;;;;;;8.50;2.33;;;13.60;99.90;;;;;;5091601;28;25075;-74
2022/11/07 01:38:06;;;;;;;4.82;2.03;;;13.60;99.90;;;;;;5059459;28;25128;-74
2022/11/07 01:41:19;;;;;;;10.25;2.05;;;13.50;99.90;;;;;;5075426;28;25128;-75
2022/11/07 01:43:17;;;;;;;4.00;1.60;;;13.50;99.90;;;;;;5078446;28;25113;-72
2022/11/07 01:45:43;;;;;;;5.28;1.90;;;13.60;99.90;;;;;;5054550;28;25117;-74
2022/11/07 01:48:08;;;;;;;9.85;2.10;;;13.60;99.90;;;;;;5065628;28;25140;-73
2022/11/07 01:50:34;;;;;;;5.95;2.33;;;13.60;99.90;;;;;;5071961;28;25168;-76
2022/11/07 01:53:00;;;;;;;6.95;2.42;;;13.60;99.90;;;;;;5067212;28;25059;-73
2022/11/07 01:55:30;;;;;;;8.18;2.38;;;13.70;99.90;;;;;;5059847;28;25113;-73
2022/11/07 01:58:03;;;;;;;14.65;2.28;;;13.70;99.90;;;;;;5069086;28;25068;-73
2022/11/07 02:00:30;;;;;;;7.20;2.05;;;13.70;99.90;;;;;;5058693;28;25162;-75
2022/11/07 02:03:07;;;;;;;6.22;2.25;;;13.70;99.90;;;;;;5064758;28;25125;-74
2022/11/07 02:05:37;;;;;;;9.52;2.00;;;13.70;99.90;;;;;;5071280;28;25071;-74
2022/11/07 02:08:06;;;;;;;9.68;1.75;;;13.70;99.90;;;;;;5068329;28;25071;-75
2022/11/07 02:10:36;;;;;;;5.03;2.22;;;13.70;99.90;;;;;;5075947;28;25171;-75
2022/11/07 02:13:02;;;;;;;5.97;2.00;;;13.60;99.90;;;;;;5058843;28;25095;-73
2022/11/07 02:15:28;;;;;;;5.32;2.15;;;13.60;99.90;;;;;;5063949;28;25076;-75
2022/11/07 02:17:55;;;;;;;7.70;2.28;;;13.60;99.90;;;;;;5071868;28;25119;-74
2022/11/07 02:20:20;;;;;;;3.85;1.77;;;13.60;99.90;;;;;;5066169;28;25145;-74
2022/11/07 02:22:52;;;;;;;7.30;2.58;;;13.60;99.90;;;;;;5079202;28;25116;-72
2022/11/07 02:25:19;;;;;;;8.55;1.92;;;13.70;99.90;;;;;;5060361;28;25064;-74
2022/11/07 02:27:47;;;;;;;3.28;2.08;;;13.70;99.90;;;;;;5069779;28;25087;-73
2022/11/07 02:30:22;;;;;;;4.07;1.98;;;13.70;99.90;;;;;;5069259;28;25137;-74
2022/11/07 02:32:48;;;;;;;12.88;2.78;;;13.60;99.90;;;;;;5059224;28;25078;-75
2022/11/07 02:35:40;;;;;;;9.38;2.20;;;13.60;99.90;;;;;;5063361;28;25156;-74
2022/11/07 02:38:09;;;;;;;10.82;2.30;;;13.60;99.90;;;;;;5063990;28;25141;-75
2022/11/07 02:40:35;;;;;;;6.63;1.92;;;13.60;99.90;;;;;;5054917;28;25126;-73
2022/11/07 02:43:02;;;;;;;14.65;2.65;;;13.60;99.90;;;;;;5076251;28;25067;-74
2022/11/07 02:45:31;;;;;;;14.27;2.25;;;13.60;99.90;;;;;;5070720;28;25106;-73
2022/11/07 02:47:57;;;;;;;13.45;2.28;;;13.60;99.90;;;;;;5062221;28;25063;-72
2022/11/07 02:50:23;;;;;;;8.38;2.40;;;13.60;99.90;;;;;;5059522;28;25069;-73
2022/11/07 02:52:48;;;;;;;6.40;2.10;;;13.60;99.90;;;;;;5072059;28;25077;-75
2022/11/07 02:55:14;;;;;;;13.43;2.35;;;13.50;99.90;;;;;;5067588;28;25127;-74
2022/11/07 02:57:40;;;;;;;10.98;2.80;;;13.50;99.90;;;;;;5067551;28;25054;-73
2022/11/07 03:00:07;;;;;;;10.23;2.40;;;13.50;99.90;;;;;;5057002;28;25140;-75
2022/11/07 03:02:33;;;;;;;4.32;1.77;;;13.50;99.90;;;;;;5060936;28;25105;-72
2022/11/07 03:04:58;;;;;;;9.00;1.60;;;13.50;99.90;;;;;;5063352;28;25121;-73
2022/11/07 03:07:26;;;;;;;6.07;2.08;;;13.60;99.90;;;;;;5073134;28;25075;-74
2022/11/07 03:09:51;;;;;;;12.02;1.65;;;13.60;99.90;;;;;;5066779;28;25067;-75
2022/11/07 03:12:17;;;;;;;13.40;2.53;;;13.60;99.90;;;;;;5060830;28;25069;-75
2022/11/07 03:14:42;;;;;;;11.52;2.00;;;13.70;99.90;;;;;;5074624;28;25156;-72
2022/11/07 03:17:08;;;;;;;10.07;2.20;;;13.60;99.90;;;;;;5050606;28;25092;-73
2022/11/07 03:19:34;;;;;;;16.10;2.38;;;13.60;99.90;;;;;;5072963;28;25100;-73
2022/11/07 03:21:59;;;;;;;10.98;1.90;;;13.70;99.90;;;;;;5064053;28;25102;-71
2022/11/07 03:24:25;;;;;;;11.00;2.47;;;13.70;99.90;;;;;;5072792;28;25054;-75
2022/11/07 03:26:51;;;;;;;13.35;2.40;;;13.60;99.90;;;;;;5046430;28;25066;-74
2022/11/07 03:29:16;;;;;;;8.38;2.20;;;13.70;99.90;;;;;;5051102;28;25054;-73
2022/11/07 03:31:42;;;;;;;7.97;2.50;;;13.70;99.90;;;;;;5070933;28;25066;-73
2022/11/07 03:34:07;;;;;;;11.35;2.55;;;13.60;99.90;;;;;;5065678;28;25082;-77
2022/11/07 03:36:33;;;;;;;9.05;3.15;;;13.60;99.90;;;;;;5066638;28;25066;-73
2022/11/07 03:38:59;;;;;;;9.25;1.88;;;13.70;99.90;;;;;;5059953;28;25127;-74
2022/11/07 03:41:25;;;;;;;11.40;2.22;;;13.70;99.90;;;;;;5057824;28;25068;-75
2022/11/07 03:43:50;;;;;;;12.10;2.42;;;13.70;99.90;;;;;;5062311;28;25112;-74
2022/11/07 03:46:16;;;;;;;6.97;2.13;;;13.80;99.90;;;;;;5058488;28;25074;-74
2022/11/07 03:48:42;;;;;;;7.90;2.78;;;13.80;99.90;;;;;;5068025;28;25146;-73
2022/11/07 03:51:09;;;;;;;3.90;1.80;;;13.80;99.90;;;;;;5061037;28;25062;-74
2022/11/07 03:53:35;;;;;;;9.07;1.70;;;13.80;99.90;;;;;;5069480;28;25081;-74
2022/11/07 03:56:09;;;;;;;9.13;2.10;;;13.70;99.90;;;;;;5063062;28;25066;-76
2022/11/07 03:58:35;;;;;;;22.92;3.35;;;13.80;99.90;;;;;;5065775;28;25078;-76
2022/11/07 04:01:02;;;;;;;17.88;2.13;;;13.80;99.90;;;;;;5071371;28;25072;-76
2022/11/07 04:03:27;;;;;;;9.02;2.55;;;13.80;99.90;;;;;;5063781;28;25079;-76
2022/11/07 04:05:53;;;;;;;14.73;2.63;;;13.90;99.90;;;;;;5067316;28;25131;-75
2022/11/07 04:08:19;;;;;;;8.70;2.97;;;13.80;99.90;;;;;;5079356;28;25048;-74
2022/11/07 04:10:44;;;;;;;16.63;2.58;;;13.90;99.90;;;;;;5086746;28;25077;-75
2022/11/07 04:18:38;;;;;;;7.70;2.28;;;13.90;99.90;;;;;;5074205;28;24874;-74
2022/11/07 04:21:04;;;;;;;16.27;2.28;;;13.80;99.90;;;;;;5072467;28;25138;-75
2022/11/07 04:23:29;;;;;;;10.95;2.92;;;13.80;99.90;;;;;;5079447;28;25158;-74
2022/11/07 04:28:39;;;;;;;10.02;2.38;;;13.80;99.90;;;;;;5069384;28;25115;-73
2022/11/07 04:31:05;;;;;;;13.07;3.22;;;13.90;99.90;;;;;;5067164;28;25062;-75
2022/11/07 04:33:30;;;;;;;11.88;2.60;;;13.90;99.90;;;;;;5066722;28;25098;-73
2022/11/07 04:35:56;;;;;;;14.55;2.60;;;13.90;99.90;;;;;;5061661;28;25115;-73
2022/11/07 04:38:22;;;;;;;14.98;2.97;;;13.90;99.90;;;;;;5067855;28;25105;-74
2022/11/07 04:40:55;;;;;;;10.77;2.60;;;14.00;99.90;;;;;;5060239;28;25160;-75
2022/11/07 04:43:21;;;;;;;7.28;2.47;;;14.00;99.90;;;;;;5061178;28;25068;-75
2022/11/07 04:45:47;;;;;;;17.23;2.88;;;14.00;99.90;;;;;;5052890;28;25061;-75
2022/11/07 04:48:12;;;;;;;16.40;2.55;;;14.00;99.90;;;;;;5071821;28;25082;-76
2022/11/07 04:50:38;;;;;;;13.60;2.83;;;14.00;99.90;;;;;;5066945;28;25085;-75
2022/11/07 04:53:04;;;;;;;15.05;2.63;;;14.00;99.90;;;;;;5071810;28;25099;-75
2022/11/07 04:55:29;;;;;;;11.60;2.90;;;14.00;99.90;;;;;;5079621;28;25072;-74
2022/11/07 04:57:55;;;;;;;5.05;2.05;;;14.00;99.90;;;;;;5074149;28;25068;-76
2022/11/07 05:00:21;;;;;;;16.92;2.55;;;14.00;99.90;;;;;;5048688;28;25056;-76
2022/11/07 05:02:48;;;;;;;24.33;2.78;;;14.00;99.90;;;;;;5069495;28;25111;-74
2022/11/07 05:05:14;;;;;;;19.17;3.20;;;14.00;99.90;;;;;;5071388;28;25115;-74
2022/11/07 05:07:40;;;;;;;15.57;2.50;;;14.10;99.90;;;;;;5076446;28;25176;-75
2022/11/07 05:10:12;;;;;;;11.15;2.80;;;14.00;99.90;;;;;;5058954;28;25057;-74
2022/11/07 05:12:38;;;;;;;15.75;2.88;;;14.00;99.90;;;;;;5055009;28;25069;-77
2022/11/07 05:15:04;;;;;;;12.85;2.55;;;14.00;99.90;;;;;;5066153;28;25064;-75
2022/11/07 05:17:30;;;;;;;21.05;2.88;;;14.00;99.90;;;;;;5066857;28;25072;-76
2022/11/07 05:19:55;;;;;;;10.00;2.33;;;14.10;99.90;;;;;;5074156;28;25153;-73
2022/11/07 05:25:05;;;;;;;14.38;2.80;;;14.10;99.90;;;;;;5059286;28;25172;-75
2022/11/07 05:27:31;;;;;;;21.08;3.38;;;14.10;99.90;;;;;;5061207;28;25074;-74
2022/11/07 05:29:57;;;;;;;17.75;3.28;;;14.20;99.90;;;;;;5076344;28;25092;-74
2022/11/07 05:32:22;;;;;;;23.42;3.67;;;14.10;99.90;;;;;;5064636;28;25069;-75
2022/11/07 05:34:48;;;;;;;10.57;3.42;;;14.10;99.90;;;;;;5064643;28;25121;-75
2022/11/07 05:37:14;;;;;;;13.15;3.33;;;14.10;99.90;;;;;;5052626;28;25063;-75
2022/11/07 05:39:39;;;;;;;9.68;3.03;;;14.20;99.90;;;;;;5062609;28;25149;-74
2022/11/07 05:42:05;;;;;;;29.48;4.85;;;14.20;99.90;;;;;;5068459;28;25072;-74
2022/11/07 05:44:31;;;;;;;13.32;3.45;;;14.30;99.90;;;;;;5067389;28;25063;-73
2022/11/07 05:46:57;;;;;;;20.08;4.13;;;14.30;99.90;;;;;;5076342;28;25098;-74
2022/11/07 05:49:23;;;;;;;22.35;4.85;;;14.30;99.90;;;;;;5062616;28;25091;-75
2022/11/07 05:51:49;;;;;;;10.48;3.22;;;14.40;99.90;;;;;;5077453;28;25100;-73
2022/11/07 05:54:14;;;;;;;8.52;3.53;;;14.50;99.90;;;;;;5066814;28;25098;-74
2022/11/07 05:56:42;;;;;;;18.73;3.60;;;14.50;99.90;;;;;;5075877;28;25065;-74
2022/11/07 05:59:08;;;;;;;18.33;3.88;;;14.50;99.90;;;;;;5050908;28;25052;-73
2022/11/07 06:01:34;;;;;;;19.38;3.50;;;14.40;99.90;;;;;;5075448;28;25068;-74
2022/11/07 06:04:01;;;;;;;12.73;3.70;;;14.50;99.90;;;;;;5065156;28;25056;-73
2022/11/07 06:06:27;;;;;;;14.35;3.25;;;14.50;99.90;;;;;;5079672;28;25058;-74
2022/11/07 06:08:53;;;;;;;11.88;3.35;;;14.50;99.90;;;;;;5053804;28;25093;-75
2022/11/07 06:11:18;;;;;;;16.00;4.20;;;14.50;99.90;;;;;;5075297;28;25152;-73
2022/11/07 06:13:44;;;;;;;9.65;3.20;;;14.50;99.90;;;;;;5066914;28;25113;-73
2022/11/07 06:16:09;;;;;;;20.60;4.55;;;14.50;99.90;;;;;;5077898;28;25153;-73
2022/11/07 06:18:36;;;;;;;15.48;3.15;;;14.50;99.90;;;;;;5061623;28;25066;-75
2022/11/07 06:21:02;;;;;;;12.38;3.67;;;14.50;99.90;;;;;;5076507;28;25076;-74
2022/11/07 06:23:28;;;;;;;22.30;4.10;;;14.50;99.90;;;;;;5053529;28;25137;-74
2022/11/07 06:25:53;;;;;;;11.70;3.85;;;14.50;99.90;;;;;;5073136;28;25080;-75
2022/11/07 06:28:19;;;;;;;13.82;3.25;;;14.40;99.90;;;;;;5087233;28;25062;-74
2022/11/07 06:30:45;;;;;;;10.63;2.83;;;14.50;99.90;;;;;;5084912;28;25061;-74
2022/11/07 06:33:13;;;;;;;17.00;3.92;;;14.40;99.90;;;;;;5074705;28;25048;-74
2022/11/07 06:35:38;;;;;;;10.00;3.40;;;14.40;99.90;;;;;;5059397;28;25080;-75
2022/11/07 06:38:07;;;;;;;12.38;2.88;;;14.40;99.90;;;;;;5079499;28;25130;-75
2022/11/07 06:40:33;;;;;;;18.63;3.28;;;14.40;99.90;;;;;;5060916;28;25087;-74
2022/11/07 06:43:11;;;;;;;15.07;3.10;;;14.40;99.90;;;;;;5081161;28;25057;-74
2022/11/07 06:45:37;;;;;;;7.45;2.78;;;14.40;99.90;;;;;;5072344;28;25073;-75
2022/11/07 06:48:03;;;;;;;12.02;3.08;;;14.40;99.90;;;;;;5056123;28;25072;-74
2022/11/07 06:50:29;;;;;;;9.70;2.50;;;14.30;99.90;;;;;;5078280;28;25070;-74
2022/11/07 06:52:59;;;;;;;15.70;2.40;;;14.30;99.90;;;;;;5072470;28;25068;-75
2022/11/07 06:55:24;;;;;;;9.88;2.17;;;14.30;99.90;;;;;;5067160;28;25108;-74
2022/11/07 06:57:50;;;;;;;10.35;4.13;;;14.30;99.90;;;;;;5087674;28;25067;-76
2022/11/07 07:00:16;;;;;;;10.32;2.53;;;14.30;99.90;;;;;;5075982;28;25071;-74
2022/11/07 07:02:41;;;;;;;10.98;2.33;;;14.30;99.90;;;;;;5075336;28;25081;-75
2022/11/07 07:05:07;;;;;;;13.90;3.65;;;14.30;99.90;;;;;;5081366;28;25104;-75
2022/11/07 07:07:33;;;;;;;15.60;4.03;;;14.30;99.90;;;;;;5069334;28;25123;-75
2022/11/07 07:09:58;;;;;;;11.98;2.38;;;14.30;99.90;;;;;;5067661;28;25047;-73
2022/11/07 07:12:25;;;;;;;6.85;2.40;;;14.30;99.90;;;;;;5061830;28;25057;-75
2022/11/07 07:14:50;;;;;;;11.43;2.38;;;14.30;99.90;;;;;;5066929;28;25112;-74
2022/11/07 07:17:16;;;;;;;8.90;2.70;;;14.30;99.90;;;;;;5062708;28;25083;-75
2022/11/07 07:19:42;;;;;;;11.15;2.75;;;14.30;99.90;;;;;;5068159;28;25063;-73
2022/11/07 07:22:12;;;;;;;14.20;3.00;;;14.30;99.90;;;;;;5067919;28;25064;-75
2022/11/07 07:24:38;;;;;;;13.60;3.10;;;14.30;99.90;;;;;;5064590;28;25056;-75
2022/11/07 07:27:04;;;;;;;18.35;2.38;;;14.30;99.90;;;;;;5076324;28;25073;-74
2022/11/07 07:29:29;;;;;;;13.70;3.03;;;14.40;99.90;;;;;;5078056;28;25074;-73
2022/11/07 07:31:55;;;;;;;14.50;3.88;;;14.40;99.90;;;;;;5058674;28;25110;-74
2022/11/07 07:34:23;;;;;;;16.58;2.20;;;14.40;99.90;;;;;;5064142;28;25109;-74
2022/11/07 07:36:48;;;;;;;13.57;3.35;;;14.40;99.90;;;;;;5069998;28;25068;-73
2022/11/07 07:39:14;;;;;;;18.15;2.90;;;14.40;99.90;;;;;;5065351;28;25094;-73
2022/11/07 07:41:40;;;;;;;12.93;2.53;;;14.40;99.90;;;;;;5062318;28;25126;-73
2022/11/07 07:44:05;;;;;;;14.32;3.05;;;14.40;99.90;;;;;;5064100;28;25101;-74
2022/11/07 07:46:31;;;;;;;17.52;2.90;;;14.50;99.90;;;;;;5066474;28;25085;-74
2022/11/07 07:48:56;;;;;;;10.60;2.55;;;14.50;99.90;;;;;;5067821;28;25071;-73
2022/11/07 07:51:22;;;;;;;9.38;3.05;;;14.50;99.90;;;;;;5079435;28;25075;-74
2022/11/07 07:53:48;;;;;;;20.35;2.72;;;14.40;99.90;;;;;;5078998;28;25069;-72
2022/11/07 07:56:13;;;;;;;10.23;2.58;;;14.50;99.90;;;;;;5082026;28;25085;-72
2022/11/07 07:58:39;;;;;;;12.07;2.05;;;14.50;99.90;;;;;;5061429;28;25087;-75
2022/11/07 08:01:09;;;;;;;13.40;3.08;;;14.50;99.90;;;;;;5072337;28;25053;-74
2022/11/07 08:03:35;;;;;;;15.65;2.78;;;14.60;99.90;;;;;;5071143;28;25066;-72
2022/11/07 08:06:00;;;;;;;10.18;2.03;;;14.50;99.90;;;;;;5077987;28;25066;-73
2022/11/07 08:08:26;;;;;;;18.50;3.05;;;14.50;99.90;;;;;;5068968;28;25139;-73
2022/11/07 08:10:53;;;;;;;13.65;2.22;;;14.50;99.90;;;;;;5068719;28;25076;-74
2022/11/07 08:13:23;;;;;;;12.88;2.55;;;14.50;99.90;;;;;;5078003;28;25108;-72
2022/11/07 08:15:49;;;;;;;11.35;2.60;;;14.50;99.90;;;;;;5059955;28;25060;-73
2022/11/07 08:18:16;;;;;;;17.95;2.83;;;14.50;99.90;;;;;;5071218;28;25077;-73
2022/11/07 08:20:42;;;;;;;15.13;2.45;;;14.60;99.90;;;;;;5082522;28;25063;-73
2022/11/07 08:23:09;;;;;;;14.68;2.97;;;14.60;99.90;;;;;;5075385;28;25106;-74
2022/11/07 08:25:35;;;;;;;12.68;3.50;;;14.60;99.90;;;;;;5068031;28;25078;-75
2022/11/07 08:28:01;;;;;;;10.15;3.88;;;14.70;99.90;;;;;;5072364;28;25057;-72
2022/11/07 08:30:27;;;;;;;7.80;2.40;;;14.70;99.90;;;;;;5073174;28;25100;-73
2022/11/07 08:32:53;;;;;;;13.45;3.13;;;14.70;99.90;;;;;;5066644;28;25059;-75
2022/11/07 08:35:18;;;;;;;19.02;3.15;;;14.70;99.90;;;;;;5051265;28;25083;-73
2022/11/07 08:37:44;;;;;;;13.85;3.00;;;14.70;99.90;;;;;;5061218;28;25066;-72
2022/11/07 08:40:10;;;;;;;10.90;3.22;;;14.70;99.90;;;;;;5070986;28;25070;-73
2022/11/07 08:42:36;;;;;;;10.68;2.90;;;14.70;99.90;;;;;;5070606;28;25118;-73
2022/11/07 08:45:02;;;;;;;15.32;3.55;;;14.60;99.90;;;;;;5066490;28;25080;-73
2022/11/07 08:47:27;;;;;;;16.55;3.20;;;14.60;99.90;;;;;;5078213;28;25067;-72
2022/11/07 08:49:53;;;;;;;14.07;3.30;;;14.70;99.90;;;;;;5068690;28;25136;-73
2022/11/07 08:52:19;;;;;;;10.07;3.15;;;14.70;99.90;;;;;;5081777;28;25095;-74
2022/11/07 08:54:44;;;;;;;20.10;2.92;;;14.70;99.90;;;;;;5072511;28;25119;-73
2022/11/07 08:57:10;;;;;;;11.98;2.65;;;14.70;99.90;;;;;;5070112;28;25074;-73
2022/11/07 08:59:35;;;;;;;14.65;2.78;;;14.70;99.90;;;;;;5075022;28;25066;-74
2022/11/07 09:02:01;;;;;;;21.83;3.45;;;14.70;99.90;;;;;;5075491;28;25138;-73
2022/11/07 09:04:27;;;;;;;19.08;3.20;;;14.70;99.90;;;;;;5071383;28;25126;-73
2022/11/07 09:06:52;;;;;;;11.55;2.72;;;14.70;99.90;;;;;;5077854;28;25071;-74
2022/11/07 09:09:18;;;;;;;10.95;2.53;;;14.60;99.90;;;;;;5074484;28;25132;-74
2022/11/07 09:11:43;;;;;;;13.85;2.97;;;14.70;99.90;;;;;;5075984;28;25058;-74
2022/11/07 09:14:09;;;;;;;12.15;2.85;;;14.70;99.90;;;;;;5075314;28;25079;-74
2022/11/07 09:16:34;;;;;;;14.63;2.42;;;14.70;99.90;;;;;;5075665;28;25072;-74
2022/11/07 09:19:00;;;;;;;15.20;3.10;;;14.70;99.90;;;;;;5076693;28;25056;-73
2022/11/07 09:21:25;;;;;;;11.25;2.17;;;14.60;99.90;;;;;;5073168;28;25140;-74
2022/11/07 09:23:51;;;;;;;15.55;3.15;;;14.60;99.90;;;;;;5070440;28;25088;-74
2022/11/07 09:26:17;;;;;;;15.50;3.17;;;14.70;99.90;;;;;;5059439;28;25063;-74
2022/11/07 09:28:43;;;;;;;15.02;2.85;;;14.70;99.90;;;;;;5074677;28;25075;-74
2022/11/07 09:31:08;;;;;;;14.05;2.88;;;14.70;99.90;;;;;;5065146;28;25067;-73
2022/11/07 09:33:34;;;;;;;11.27;3.03;;;14.70;99.90;;;;;;5072751;28;25066;-73
2022/11/07 09:36:01;;;;;;;11.95;2.90;;;14.70;99.90;;;;;;5069412;28;25074;-75
2022/11/07 09:38:27;;;;;;;15.02;3.53;;;14.70;99.90;;;;;;5071012;28;25073;-73
2022/11/07 09:41:02;;;;;;;12.70;3.05;;;14.80;99.90;;;;;;5078659;28;25065;-73
2022/11/07 09:43:54;;;;;;;11.13;2.60;;;14.80;99.90;;;;;;5069930;28;25097;-74
2022/11/07 09:46:31;;;;;;;12.40;2.30;;;14.80;99.90;;;;;;5034299;28;25082;-74
2022/11/07 09:49:42;;;;;;;16.17;4.30;;;14.90;99.90;;;;;;5073968;28;25122;-73
2022/11/07 09:52:18;;;;;;;8.55;2.30;;;15.00;99.90;;;;;;5044921;28;25093;-74
2022/11/07 09:54:52;;;;;;;11.23;3.55;;;14.90;99.90;;;;;;5075206;28;25043;-74
2022/11/07 09:57:19;;;;;;;13.90;3.97;;;14.90;99.90;;;;;;5068286;28;25065;-73
2022/11/07 09:59:47;;;;;;;7.68;2.85;;;14.90;99.90;;;;;;5073080;28;25098;-73
2022/11/07 10:02:19;;;;;;;15.13;3.15;;;14.90;99.90;;;;;;5065595;28;25057;-73
2022/11/07 10:04:51;;;;;;;16.93;2.97;;;14.90;99.90;;;;;;5057517;28;25044;-74
2022/11/07 10:07:46;;;;;;;14.00;3.50;;;14.90;99.90;;;;;;5074900;28;25133;-74
2022/11/07 10:10:21;;;;;;;15.95;2.80;;;14.90;99.90;;;;;;5073745;28;25146;-73
2022/11/07 10:13:00;;;;;;;14.27;2.90;;;15.10;99.90;;;;;;5076308;28;25063;-73
2022/11/07 10:15:42;;;;;;;10.07;2.42;;;15.10;99.90;;;;;;5063296;28;25130;-72
2022/11/07 10:18:16;;;;;;;;;;;15.00;99.90;;;;;;5041722;28;25130;-73
2022/11/07 10:21:00;;;;;;;13.20;2.55;;;15.00;99.90;;;;;;5064321;28;25058;-73
2022/11/07 10:23:40;;;;;;;9.25;2.55;;;14.90;99.90;;;;;;5069937;28;25123;-76
2022/11/07 10:26:11;;;;;;;21.05;2.97;;;14.90;99.90;;;;;;5060889;28;25049;-73
2022/11/07 10:29:01;;;;;;;10.77;2.47;;;14.90;99.90;;;;;;5072417;28;25127;-73
2022/11/07 10:31:35;;;;;;;12.38;3.85;;;15.00;99.90;;;;;;5071491;28;25118;-74
2022/11/07 10:34:20;;;;;;;12.02;2.90;;;15.00;99.90;;;;;;5055381;28;25054;-73
2022/11/07 10:36:45;;;;;;;8.55;3.20;;;15.00;99.90;;;;;;5070626;28;25059;-74
2022/11/07 10:39:17;;;;;;;14.45;2.60;;;14.90;99.90;;;;;;5047783;28;25069;-74
2022/11/07 10:42:03;;;;;;;13.65;2.80;;;14.90;99.90;;;;;;5051761;28;25071;-74
2022/11/07 10:44:29;;;;;;;11.88;3.20;;;14.90;99.90;;;;;;5063205;28;25063;-74
2022/11/07 10:46:54;;;;;;;10.20;3.35;;;15.10;99.90;;;;;;5074575;28;25072;-74
2022/11/07 10:49:24;;;;;;;14.02;2.65;;;15.00;99.90;;;;;;5071424;28;25136;-73
2022/11/07 10:51:51;;;;;;;10.18;3.25;;;15.10;99.90;;;;;;5075243;28;25108;-73
2022/11/07 10:54:27;;;;;;;9.68;3.00;;;15.10;99.90;;;;;;5065533;28;25124;-74
2022/11/07 10:57:08;;;;;;;13.02;2.60;;;15.10;99.90;;;;;;5049201;28;25065;-73
2022/11/07 10:59:36;;;;;;;12.93;3.08;;;15.10;99.90;;;;;;5068902;28;25076;-74
2022/11/07 11:02:20;;;;;;;16.35;3.35;;;15.10;99.90;;;;;;5071974;28;25155;-74
2022/11/07 11:04:57;;;;;;;12.40;2.92;;;15.10;99.90;;;;;;5075532;28;25081;-74
2022/11/07 11:07:31;;;;;;;10.77;2.58;;;15.00;99.90;;;;;;5067646;28;25059;-74
2022/11/07 11:09:57;;;;;;;14.88;2.63;;;15.00;99.90;;;;;;5063691;28;25061;-75
2022/11/07 11:12:31;;;;;;;10.02;3.10;;;15.00;99.90;;;;;;5054200;28;25135;-73
2022/11/07 11:15:12;;;;;;;12.38;2.92;;;15.00;99.90;;;;;;5061777;28;25073;-75
2022/11/07 11:17:38;;;;;;;6.95;2.75;;;15.00;99.90;;;;;;5081193;28;25122;-74
2022/11/07 11:20:05;;;;;;;10.32;2.90;;;15.10;99.90;;;;;;5062288;28;25133;-74
2022/11/07 11:22:40;;;;;;;19.15;3.50;;;15.20;99.90;;;;;;5057864;28;25097;-73
2022/11/07 11:25:09;;;;;;;16.13;2.40;;;15.10;99.90;;;;;;5065804;28;25105;-73
2022/11/07 11:27:37;;;;;;;16.30;4.75;;;15.20;99.90;;;;;;5058571;28;25059;-73
2022/11/07 11:30:10;;;;;;;11.27;2.33;;;15.10;99.90;;;;;;5067189;28;25082;-74
2022/11/07 11:32:45;;;;;;;13.13;2.70;;;15.10;99.90;;;;;;5066972;28;25075;-73
2022/11/07 11:35:14;;;;;;;15.27;3.15;;;15.10;99.90;;;;;;5065851;28;25079;-73
2022/11/07 11:37:45;;;;;;;11.45;2.60;;;15.10;99.90;;;;;;5062341;28;25107;-73
2022/11/07 11:40:20;;;;;;;9.38;2.45;;;15.10;99.90;;;;;;5069663;28;25074;-74
2022/11/07 11:42:53;;;;;;;11.80;3.58;;;15.10;99.90;;;;;;5066769;28;25095;-73
2022/11/07 11:45:32;;;;;;;8.25;2.17;;;15.20;99.90;;;;;;5033480;28;25099;-74
2022/11/07 11:48:09;;;;;;;16.90;2.70;;;15.20;99.90;;;;;;5081794;28;25153;-74
2022/11/07 11:50:43;;;;;;;12.25;1.80;;;15.30;99.90;;;;;;5066670;28;25109;-74
2022/11/07 11:53:15;;;;;;;12.43;2.50;;;15.30;99.90;;;;;;5075865;28;25062;-73
2022/11/07 11:55:49;;;;;;;16.70;3.55;;;15.30;99.90;;;;;;5062346;28;25067;-74
2022/11/07 11:58:23;;;;;;;14.05;2.97;;;15.30;99.90;;;;;;5070995;28;25066;-74
2022/11/07 12:01:10;;;;;;;14.48;2.55;;;15.30;99.90;;;;;;5068274;28;25091;-75
2022/11/07 12:03:59;;;;;;;15.35;2.80;;;15.40;99.90;;;;;;5065437;28;25057;-73
2022/11/07 12:06:38;;;;;;;8.00;2.10;;;15.50;99.90;;;;;;5029171;28;25070;-75
2022/11/07 12:09:28;;;;;;;10.00;2.17;;;15.50;99.90;;;;;;5068515;28;25092;-74
2022/11/07 12:12:13;;;;;;;8.98;1.98;;;15.40;99.90;;;;;;5045039;28;25063;-73
2022/11/07 12:15:06;;;;;;;14.20;2.50;;;15.40;99.90;;;;;;5047176;28;25060;-74
2022/11/07 12:17:40;;;;;;;9.75;3.47;;;15.40;99.90;;;;;;5043513;28;25138;-76
2022/11/07 12:20:27;;;;;;;7.55;2.50;;;15.40;99.90;;;;;;5061884;28;25266;-74
2022/11/07 12:23:11;;;;;;;9.32;2.55;;;15.40;99.90;;;;;;5066636;28;25163;-73
2022/11/07 12:25:52;;;;;;;12.25;2.38;;;15.30;99.90;;;;;;5042060;28;25057;-73
2022/11/07 12:28:35;;;;;;;14.88;2.50;;;15.30;99.90;;;;;;5064306;28;25095;-73
2022/11/07 12:31:13;;;;;;;12.85;2.30;;;15.30;99.90;;;;;;5059666;28;25075;-74
2022/11/07 12:33:57;;;;;;;8.88;2.28;;;15.30;99.90;;;;;;5070186;28;25061;-73
2022/11/07 12:36:55;;;;;;;8.18;1.98;;;15.30;99.90;;;;;;5071254;28;25046;-75
2022/11/07 12:39:48;;;;;;;11.27;2.38;;;15.20;99.90;;;;;;5059684;28;25045;-74
2022/11/07 12:42:34;;;;;;;5.82;2.05;;;15.20;99.90;;;;;;5067216;28;25063;-75
2022/11/07 12:45:32;;;;;;;10.30;2.63;;;15.20;99.90;;;;;;5058445;28;25078;-74
2022/11/07 12:48:20;;;;;;;15.57;3.30;;;15.30;99.90;;;;;;5076551;28;25140;-74
2022/11/07 12:50:56;;;;;;;9.63;2.35;;;15.30;99.90;;;;;;5054721;28;25165;-73
2022/11/07 12:53:33;;;;;;;13.30;2.50;;;15.30;99.90;;;;;;5070425;28;25102;-73
2022/11/07 12:56:09;;;;;;;8.02;2.28;;;15.20;99.90;;;;;;5074158;28;25067;-73
2022/11/07 12:58:37;;;;;;;13.32;3.13;;;15.20;99.90;;;;;;5071430;28;25129;-75
2022/11/07 13:01:04;;;;;;;10.02;1.88;;;15.30;99.90;;;;;;5050837;28;25141;-74
2022/11/07 13:03:44;;;;;;;7.80;2.05;;;15.30;99.90;;;;;;5068602;28;25073;-74
2022/11/07 13:06:15;;;;;;;11.30;2.15;;;15.40;99.90;;;;;;5071526;28;25068;-72